sensor_id;sensor_type;location;lat;lon;timestamp;P1;durP1;ratioP1;P2;durP2;ratioP2
27127;SDS011;14660;49.008;8.390;2022-12-28T00:04:08;15.70;;;7.57;;
27127;SDS011;14660;49.008;8.390;2022-12-28T00:06:38;12.88;;;6.57;;
27127;SDS011;14660;49.008;8.390;2022-12-28T00:09:05;9.98;;;5.22;;
27127;SDS011;14660;49.008;8.390;2022-12-28T00:11:32;12.48;;;6.32;;
27127;SDS011;14660;49.008;8.390;2022-12-28T00:13:59;14.50;;;5.70;;
27127;SDS011;14660;49.008;8.390;2022-12-28T00:19:14;7.38;;;4.43;;
27127;SDS011;14660;49.008;8.390;2022-12-28T00:21:45;9.85;;;4.95;;
27127;SDS011;14660;49.008;8.390;2022-12-28T00:24:19;7.35;;;4.38;;
27127;SDS011;14660;49.008;8.390;2022-12-28T00:26:48;8.77;;;3.95;;
27127;SDS011;14660;49.008;8.390;2022-12-28T00:29:15;9.93;;;4.38;;
27127;SDS011;14660;49.008;8.390;2022-12-28T00:31:42;8.25;;;4.07;;
27127;SDS011;14660;49.008;8.390;2022-12-28T00:34:10;9.75;;;4.47;;
27127;SDS011;14660;49.008;8.390;2022-12-28T00:36:37;8.13;;;3.92;;
27127;SDS011;14660;49.008;8.390;2022-12-28T00:39:04;8.75;;;5.57;;
27127;SDS011;14660;49.008;8.390;2022-12-28T00:41:31;8.23;;;3.88;;
27127;SDS011;14660;49.008;8.390;2022-12-28T00:43:58;9.82;;;4.65;;
27127;SDS011;14660;49.008;8.390;2022-12-28T00:46:24;10.00;;;5.35;;
27127;SDS011;14660;49.008;8.390;2022-12-28T00:48:51;9.25;;;5.28;;
27127;SDS011;14660;49.008;8.390;2022-12-28T00:51:19;10.02;;;4.32;;
27127;SDS011;14660;49.008;8.390;2022-12-28T00:53:46;12.98;;;4.15;;
27127;SDS011;14660;49.008;8.390;2022-12-28T00:56:14;7.60;;;4.13;;
27127;SDS011;14660;49.008;8.390;2022-12-28T00:58:42;8.65;;;4.63;;
27127;SDS011;14660;49.008;8.390;2022-12-28T01:01:14;6.90;;;4.05;;
27127;SDS011;14660;49.008;8.390;2022-12-28T01:03:44;6.10;;;3.90;;
27127;SDS011;14660;49.008;8.390;2022-12-28T01:06:12;9.95;;;4.07;;
27127;SDS011;14660;49.008;8.390;2022-12-28T01:08:40;9.38;;;4.05;;
27127;SDS011;14660;49.008;8.390;2022-12-28T01:11:11;9.65;;;4.40;;
27127;SDS011;14660;49.008;8.390;2022-12-28T01:13:43;15.38;;;4.40;;
27127;SDS011;14660;49.008;8.390;2022-12-28T01:18:59;7.97;;;4.25;;
27127;SDS011;14660;49.008;8.390;2022-12-28T01:21:30;5.55;;;4.18;;
27127;SDS011;14660;49.008;8.390;2022-12-28T01:23:59;8.13;;;3.97;;
27127;SDS011;14660;49.008;8.390;2022-12-28T01:26:29;6.25;;;3.65;;
27127;SDS011;14660;49.008;8.390;2022-12-28T01:28:56;5.97;;;3.65;;
27127;SDS011;14660;49.008;8.390;2022-12-28T01:31:24;8.18;;;4.00;;
27127;SDS011;14660;49.008;8.390;2022-12-28T01:33:51;8.13;;;4.85;;
27127;SDS011;14660;49.008;8.390;2022-12-28T01:36:17;9.18;;;3.35;;
27127;SDS011;14660;49.008;8.390;2022-12-28T01:38:55;5.50;;;4.30;;
27127;SDS011;14660;49.008;8.390;2022-12-28T01:41:23;7.30;;;4.15;;
27127;SDS011;14660;49.008;8.390;2022-12-28T01:46:56;6.22;;;4.15;;
27127;SDS011;14660;49.008;8.390;2022-12-28T01:49:29;7.40;;;4.40;;
27127;SDS011;14660;49.008;8.390;2022-12-28T02:00:53;10.10;;;4.47;;
27127;SDS011;14660;49.008;8.390;2022-12-28T02:03:20;7.13;;;3.38;;
27127;SDS011;14660;49.008;8.390;2022-12-28T02:05:51;5.88;;;4.18;;
27127;SDS011;14660;49.008;8.390;2022-12-28T02:11:29;7.28;;;4.05;;
27127;SDS011;14660;49.008;8.390;2022-12-28T02:13:57;7.25;;;4.20;;
27127;SDS011;14660;49.008;8.390;2022-12-28T02:16:25;6.95;;;3.38;;
27127;SDS011;14660;49.008;8.390;2022-12-28T02:18:53;5.10;;;3.40;;
27127;SDS011;14660;49.008;8.390;2022-12-28T02:39:02;7.70;;;3.50;;
27127;SDS011;14660;49.008;8.390;2022-12-28T02:41:33;8.43;;;3.78;;
27127;SDS011;14660;49.008;8.390;2022-12-28T02:44:03;6.40;;;4.18;;
27127;SDS011;14660;49.008;8.390;2022-12-28T02:46:30;7.18;;;3.78;;
27127;SDS011;14660;49.008;8.390;2022-12-28T02:49:17;5.55;;;3.42;;
27127;SDS011;14660;49.008;8.390;2022-12-28T03:10:51;5.88;;;3.13;;
27127;SDS011;14660;49.008;8.390;2022-12-28T03:16:44;5.07;;;3.03;;
27127;SDS011;14660;49.008;8.390;2022-12-28T03:19:34;4.90;;;2.85;;
27127;SDS011;14660;49.008;8.390;2022-12-28T03:22:25;3.60;;;2.75;;
27127;SDS011;14660;49.008;8.390;2022-12-28T03:25:16;4.78;;;3.15;;
27127;SDS011;14660;49.008;8.390;2022-12-28T03:28:05;5.35;;;3.28;;
27127;SDS011;14660;49.008;8.390;2022-12-28T03:30:53;5.82;;;3.67;;
27127;SDS011;14660;49.008;8.390;2022-12-28T03:33:33;4.63;;;3.78;;
27127;SDS011;14660;49.008;8.390;2022-12-28T03:36:33;8.23;;;4.35;;
27127;SDS011;14660;49.008;8.390;2022-12-28T03:42:07;6.00;;;3.75;;
27127;SDS011;14660;49.008;8.390;2022-12-28T03:45:19;6.22;;;4.78;;
27127;SDS011;14660;49.008;8.390;2022-12-28T03:47:50;8.75;;;4.03;;
27127;SDS011;14660;49.008;8.390;2022-12-28T03:50:19;5.85;;;3.80;;
27127;SDS011;14660;49.008;8.390;2022-12-28T03:52:47;7.40;;;3.53;;
27127;SDS011;14660;49.008;8.390;2022-12-28T03:55:14;8.02;;;4.18;;
27127;SDS011;14660;49.008;8.390;2022-12-28T03:57:42;7.50;;;3.78;;
27127;SDS011;14660;49.008;8.390;2022-12-28T04:00:09;7.85;;;4.25;;
27127;SDS011;14660;49.008;8.390;2022-12-28T04:02:36;7.68;;;3.65;;
27127;SDS011;14660;49.008;8.390;2022-12-28T04:05:03;8.00;;;4.28;;
27127;SDS011;14660;49.008;8.390;2022-12-28T04:07:30;7.60;;;4.28;;
27127;SDS011;14660;49.008;8.390;2022-12-28T04:09:57;7.22;;;3.58;;
27127;SDS011;14660;49.008;8.390;2022-12-28T04:12:24;6.97;;;4.18;;
27127;SDS011;14660;49.008;8.390;2022-12-28T04:14:51;5.45;;;3.75;;
27127;SDS011;14660;49.008;8.390;2022-12-28T04:17:18;6.40;;;3.20;;
27127;SDS011;14660;49.008;8.390;2022-12-28T04:19:45;6.05;;;3.30;;
27127;SDS011;14660;49.008;8.390;2022-12-28T04:22:12;6.28;;;3.88;;
27127;SDS011;14660;49.008;8.390;2022-12-28T04:24:38;4.90;;;3.10;;
27127;SDS011;14660;49.008;8.390;2022-12-28T04:27:05;6.45;;;3.60;;
27127;SDS011;14660;49.008;8.390;2022-12-28T04:29:32;10.07;;;4.68;;
27127;SDS011;14660;49.008;8.390;2022-12-28T04:31:59;4.82;;;3.60;;
27127;SDS011;14660;49.008;8.390;2022-12-28T04:34:27;5.18;;;2.90;;
27127;SDS011;14660;49.008;8.390;2022-12-28T04:36:54;6.47;;;3.53;;
27127;SDS011;14660;49.008;8.390;2022-12-28T04:39:20;4.47;;;2.80;;
27127;SDS011;14660;49.008;8.390;2022-12-28T04:41:47;5.72;;;3.22;;
27127;SDS011;14660;49.008;8.390;2022-12-28T04:44:14;7.88;;;2.92;;
27127;SDS011;14660;49.008;8.390;2022-12-28T04:46:41;7.55;;;2.88;;
27127;SDS011;14660;49.008;8.390;2022-12-28T04:49:07;2.97;;;2.67;;
27127;SDS011;14660;49.008;8.390;2022-12-28T04:51:34;5.00;;;2.53;;
27127;SDS011;14660;49.008;8.390;2022-12-28T04:54:00;3.25;;;1.85;;
27127;SDS011;14660;49.008;8.390;2022-12-28T04:56:27;5.10;;;2.22;;
27127;SDS011;14660;49.008;8.390;2022-12-28T04:58:58;4.35;;;2.33;;
27127;SDS011;14660;49.008;8.390;2022-12-28T05:01:25;3.28;;;1.63;;
27127;SDS011;14660;49.008;8.390;2022-12-28T05:03:53;5.13;;;2.03;;
27127;SDS011;14660;49.008;8.390;2022-12-28T05:06:20;2.55;;;1.90;;
27127;SDS011;14660;49.008;8.390;2022-12-28T05:08:49;4.90;;;1.70;;
27127;SDS011;14660;49.008;8.390;2022-12-28T05:11:19;5.53;;;1.20;;
27127;SDS011;14660;49.008;8.390;2022-12-28T05:13:47;1.77;;;1.00;;
27127;SDS011;14660;49.008;8.390;2022-12-28T05:16:15;1.60;;;0.90;;
27127;SDS011;14660;49.008;8.390;2022-12-28T05:18:43;0.82;;;0.52;;
27127;SDS011;14660;49.008;8.390;2022-12-28T05:21:12;1.67;;;0.80;;
27127;SDS011;14660;49.008;8.390;2022-12-28T05:23:40;1.70;;;0.75;;
27127;SDS011;14660;49.008;8.390;2022-12-28T05:26:08;1.25;;;0.40;;
27127;SDS011;14660;49.008;8.390;2022-12-28T05:28:37;1.15;;;0.47;;
27127;SDS011;14660;49.008;8.390;2022-12-28T05:31:05;1.80;;;0.50;;
27127;SDS011;14660;49.008;8.390;2022-12-28T05:33:35;1.17;;;0.68;;
27127;SDS011;14660;49.008;8.390;2022-12-28T05:36:03;1.60;;;0.60;;
27127;SDS011;14660;49.008;8.390;2022-12-28T05:38:32;0.60;;;0.32;;
27127;SDS011;14660;49.008;8.390;2022-12-28T05:41:03;1.08;;;0.52;;
27127;SDS011;14660;49.008;8.390;2022-12-28T05:43:34;2.33;;;0.55;;
27127;SDS011;14660;49.008;8.390;2022-12-28T05:46:05;1.05;;;0.52;;
27127;SDS011;14660;49.008;8.390;2022-12-28T05:48:34;0.90;;;0.28;;
27127;SDS011;14660;49.008;8.390;2022-12-28T05:51:04;1.17;;;0.68;;
27127;SDS011;14660;49.008;8.390;2022-12-28T05:53:33;1.98;;;0.43;;
27127;SDS011;14660;49.008;8.390;2022-12-28T05:56:02;4.53;;;0.60;;
27127;SDS011;14660;49.008;8.390;2022-12-28T05:58:31;1.15;;;0.40;;
27127;SDS011;14660;49.008;8.390;2022-12-28T06:01:07;0.60;;;0.43;;
27127;SDS011;14660;49.008;8.390;2022-12-28T06:03:36;1.42;;;0.57;;
27127;SDS011;14660;49.008;8.390;2022-12-28T06:06:08;1.45;;;0.60;;
27127;SDS011;14660;49.008;8.390;2022-12-28T06:08:43;1.42;;;0.50;;
27127;SDS011;14660;49.008;8.390;2022-12-28T06:11:16;1.20;;;0.40;;
27127;SDS011;14660;49.008;8.390;2022-12-28T06:13:45;1.58;;;0.85;;
27127;SDS011;14660;49.008;8.390;2022-12-28T06:16:16;2.65;;;1.02;;
27127;SDS011;14660;49.008;8.390;2022-12-28T06:18:47;3.45;;;0.40;;
27127;SDS011;14660;49.008;8.390;2022-12-28T06:24:02;2.10;;;0.65;;
27127;SDS011;14660;49.008;8.390;2022-12-28T06:26:31;2.25;;;0.32;;
27127;SDS011;14660;49.008;8.390;2022-12-28T06:28:59;2.35;;;1.40;;
27127;SDS011;14660;49.008;8.390;2022-12-28T06:31:30;1.75;;;0.50;;
27127;SDS011;14660;49.008;8.390;2022-12-28T06:33:59;0.73;;;0.32;;
27127;SDS011;14660;49.008;8.390;2022-12-28T06:36:34;2.63;;;0.55;;
27127;SDS011;14660;49.008;8.390;2022-12-28T06:39:04;0.82;;;0.45;;
27127;SDS011;14660;49.008;8.390;2022-12-28T06:41:32;5.25;;;0.60;;
27127;SDS011;14660;49.008;8.390;2022-12-28T06:43:59;2.65;;;0.70;;
27127;SDS011;14660;49.008;8.390;2022-12-28T06:46:33;1.67;;;0.60;;
27127;SDS011;14660;49.008;8.390;2022-12-28T06:49:00;2.10;;;0.40;;
27127;SDS011;14660;49.008;8.390;2022-12-28T06:51:30;2.38;;;0.82;;
27127;SDS011;14660;49.008;8.390;2022-12-28T06:54:01;2.78;;;0.50;;
27127;SDS011;14660;49.008;8.390;2022-12-28T06:56:28;3.45;;;1.05;;
27127;SDS011;14660;49.008;8.390;2022-12-28T06:58:57;1.90;;;1.35;;
27127;SDS011;14660;49.008;8.390;2022-12-28T07:01:24;1.00;;;0.50;;
27127;SDS011;14660;49.008;8.390;2022-12-28T07:03:53;3.15;;;0.73;;
27127;SDS011;14660;49.008;8.390;2022-12-28T07:06:22;1.00;;;0.65;;
27127;SDS011;14660;49.008;8.390;2022-12-28T07:08:51;1.70;;;0.73;;
27127;SDS011;14660;49.008;8.390;2022-12-28T07:11:24;0.88;;;0.65;;
27127;SDS011;14660;49.008;8.390;2022-12-28T07:13:50;2.67;;;0.68;;
27127;SDS011;14660;49.008;8.390;2022-12-28T07:16:18;0.82;;;0.40;;
27127;SDS011;14660;49.008;8.390;2022-12-28T07:18:46;1.42;;;0.73;;
27127;SDS011;14660;49.008;8.390;2022-12-28T07:24:00;2.40;;;0.73;;
27127;SDS011;14660;49.008;8.390;2022-12-28T07:26:28;1.00;;;0.50;;
27127;SDS011;14660;49.008;8.390;2022-12-28T07:28:57;1.42;;;0.40;;
27127;SDS011;14660;49.008;8.390;2022-12-28T07:31:27;3.65;;;0.68;;
27127;SDS011;14660;49.008;8.390;2022-12-28T07:33:56;2.03;;;0.60;;
27127;SDS011;14660;49.008;8.390;2022-12-28T07:36:25;2.15;;;0.70;;
27127;SDS011;14660;49.008;8.390;2022-12-28T07:38:53;4.68;;;0.80;;
27127;SDS011;14660;49.008;8.390;2022-12-28T07:41:20;2.35;;;0.50;;
27127;SDS011;14660;49.008;8.390;2022-12-28T07:43:48;2.00;;;0.60;;
27127;SDS011;14660;49.008;8.390;2022-12-28T07:49:02;0.75;;;0.47;;
27127;SDS011;14660;49.008;8.390;2022-12-28T07:51:30;2.05;;;0.68;;
27127;SDS011;14660;49.008;8.390;2022-12-28T07:53:58;2.72;;;0.70;;
27127;SDS011;14660;49.008;8.390;2022-12-28T07:56:26;3.03;;;0.77;;
27127;SDS011;14660;49.008;8.390;2022-12-28T07:58:58;0.60;;;0.40;;
27127;SDS011;14660;49.008;8.390;2022-12-28T08:01:27;2.08;;;0.80;;
27127;SDS011;14660;49.008;8.390;2022-12-28T08:04:01;3.22;;;0.80;;
27127;SDS011;14660;49.008;8.390;2022-12-28T08:06:32;2.15;;;0.60;;
27127;SDS011;14660;49.008;8.390;2022-12-28T08:09:02;2.33;;;0.77;;
27127;SDS011;14660;49.008;8.390;2022-12-28T08:11:32;2.83;;;1.25;;
27127;SDS011;14660;49.008;8.390;2022-12-28T08:14:01;1.92;;;0.98;;
27127;SDS011;14660;49.008;8.390;2022-12-28T08:16:30;1.98;;;0.90;;
27127;SDS011;14660;49.008;8.390;2022-12-28T08:18:59;1.10;;;0.98;;
27127;SDS011;14660;49.008;8.390;2022-12-28T08:21:28;1.60;;;0.52;;
27127;SDS011;14660;49.008;8.390;2022-12-28T08:23:56;3.72;;;0.98;;
27127;SDS011;14660;49.008;8.390;2022-12-28T08:29:11;5.45;;;1.15;;
27127;SDS011;14660;49.008;8.390;2022-12-28T08:31:40;2.55;;;0.80;;
27127;SDS011;14660;49.008;8.390;2022-12-28T08:34:10;1.25;;;1.00;;
27127;SDS011;14660;49.008;8.390;2022-12-28T08:36:40;1.98;;;0.90;;
27127;SDS011;14660;49.008;8.390;2022-12-28T08:39:07;1.35;;;0.73;;
27127;SDS011;14660;49.008;8.390;2022-12-28T08:41:34;3.67;;;0.70;;
27127;SDS011;14660;49.008;8.390;2022-12-28T08:44:01;1.98;;;0.90;;
27127;SDS011;14660;49.008;8.390;2022-12-28T08:46:29;4.72;;;1.25;;
27127;SDS011;14660;49.008;8.390;2022-12-28T08:48:58;2.10;;;0.90;;
27127;SDS011;14660;49.008;8.390;2022-12-28T08:54:09;0.88;;;0.52;;
27127;SDS011;14660;49.008;8.390;2022-12-28T08:56:37;2.33;;;0.50;;
27127;SDS011;14660;49.008;8.390;2022-12-28T08:59:06;1.83;;;0.63;;
27127;SDS011;14660;49.008;8.390;2022-12-28T09:01:34;1.05;;;0.52;;
27127;SDS011;14660;49.008;8.390;2022-12-28T09:04:03;2.20;;;0.45;;
27127;SDS011;14660;49.008;8.390;2022-12-28T09:09:16;1.75;;;0.98;;
27127;SDS011;14660;49.008;8.390;2022-12-28T09:11:44;2.50;;;0.80;;
27127;SDS011;14660;49.008;8.390;2022-12-28T09:14:12;1.05;;;0.65;;
27127;SDS011;14660;49.008;8.390;2022-12-28T09:16:40;3.67;;;0.68;;
27127;SDS011;14660;49.008;8.390;2022-12-28T09:19:08;3.70;;;0.70;;
27127;SDS011;14660;49.008;8.390;2022-12-28T09:21:38;2.42;;;1.35;;
27127;SDS011;14660;49.008;8.390;2022-12-28T09:24:06;2.05;;;0.70;;
27127;SDS011;14660;49.008;8.390;2022-12-28T09:26:34;1.88;;;1.23;;
27127;SDS011;14660;49.008;8.390;2022-12-28T09:29:04;2.20;;;1.00;;
27127;SDS011;14660;49.008;8.390;2022-12-28T09:31:34;4.85;;;1.05;;
27127;SDS011;14660;49.008;8.390;2022-12-28T09:34:03;2.17;;;0.77;;
27127;SDS011;14660;49.008;8.390;2022-12-28T09:36:40;1.85;;;0.63;;
27127;SDS011;14660;49.008;8.390;2022-12-28T09:45:06;0.85;;;0.60;;
27127;SDS011;14660;49.008;8.390;2022-12-28T09:59:00;1.37;;;0.63;;
27127;SDS011;14660;49.008;8.390;2022-12-28T10:01:31;1.38;;;0.55;;
27127;SDS011;14660;49.008;8.390;2022-12-28T10:04:03;1.98;;;0.60;;
27127;SDS011;14660;49.008;8.390;2022-12-28T10:06:30;3.95;;;0.60;;
27127;SDS011;14660;49.008;8.390;2022-12-28T10:09:00;1.13;;;0.65;;
27127;SDS011;14660;49.008;8.390;2022-12-28T10:11:33;3.00;;;1.10;;
27127;SDS011;14660;49.008;8.390;2022-12-28T10:16:54;3.13;;;0.90;;
27127;SDS011;14660;49.008;8.390;2022-12-28T10:19:24;2.42;;;0.55;;
27127;SDS011;14660;49.008;8.390;2022-12-28T10:21:57;2.83;;;1.48;;
27127;SDS011;14660;49.008;8.390;2022-12-28T10:26:54;1.52;;;0.65;;
27127;SDS011;14660;49.008;8.390;2022-12-28T10:29:24;1.02;;;0.80;;
27127;SDS011;14660;49.008;8.390;2022-12-28T10:34:44;1.98;;;0.60;;
27127;SDS011;14660;49.008;8.390;2022-12-28T10:37:21;2.75;;;0.65;;
27127;SDS011;14660;49.008;8.390;2022-12-28T10:39:50;1.20;;;0.45;;
27127;SDS011;14660;49.008;8.390;2022-12-28T10:42:28;1.33;;;0.63;;
27127;SDS011;14660;49.008;8.390;2022-12-28T10:45:29;2.38;;;0.68;;
27127;SDS011;14660;49.008;8.390;2022-12-28T10:47:59;1.77;;;0.75;;
27127;SDS011;14660;49.008;8.390;2022-12-28T11:02:40;1.40;;;0.50;;
27127;SDS011;14660;49.008;8.390;2022-12-28T11:05:01;1.15;;;0.40;;
27127;SDS011;14660;49.008;8.390;2022-12-28T11:13:00;1.90;;;0.73;;
27127;SDS011;14660;49.008;8.390;2022-12-28T11:15:30;3.40;;;0.60;;
27127;SDS011;14660;49.008;8.390;2022-12-28T11:18:17;1.25;;;0.75;;
27127;SDS011;14660;49.008;8.390;2022-12-28T11:20:46;0.57;;;0.30;;
27127;SDS011;14660;49.008;8.390;2022-12-28T11:23:17;3.47;;;1.90;;
27127;SDS011;14660;49.008;8.390;2022-12-28T11:28:17;2.30;;;0.68;;
27127;SDS011;14660;49.008;8.390;2022-12-28T11:30:45;1.55;;;0.75;;
27127;SDS011;14660;49.008;8.390;2022-12-28T11:33:32;5.35;;;1.02;;
27127;SDS011;14660;49.008;8.390;2022-12-28T11:36:05;2.38;;;0.88;;
27127;SDS011;14660;49.008;8.390;2022-12-28T11:38:48;1.40;;;0.63;;
27127;SDS011;14660;49.008;8.390;2022-12-28T11:44:02;1.50;;;0.70;;
27127;SDS011;14660;49.008;8.390;2022-12-28T12:01:10;1.42;;;0.80;;
27127;SDS011;14660;49.008;8.390;2022-12-28T12:12:46;1.35;;;0.57;;
27127;SDS011;14660;49.008;8.390;2022-12-28T12:15:22;1.48;;;0.40;;
27127;SDS011;14660;49.008;8.390;2022-12-28T12:18:24;1.77;;;0.40;;
27127;SDS011;14660;49.008;8.390;2022-12-28T12:23:54;2.33;;;0.60;;
27127;SDS011;14660;49.008;8.390;2022-12-28T12:29:40;0.50;;;0.43;;
27127;SDS011;14660;49.008;8.390;2022-12-28T12:35:07;1.40;;;0.38;;
27127;SDS011;14660;49.008;8.390;2022-12-28T12:53:05;1.08;;;0.50;;
27127;SDS011;14660;49.008;8.390;2022-12-28T13:04:31;1.02;;;0.43;;
27127;SDS011;14660;49.008;8.390;2022-12-28T13:07:02;0.75;;;0.35;;
27127;SDS011;14660;49.008;8.390;2022-12-28T13:09:32;0.57;;;0.30;;
27127;SDS011;14660;49.008;8.390;2022-12-28T13:11:59;1.85;;;0.50;;
27127;SDS011;14660;49.008;8.390;2022-12-28T13:14:27;1.85;;;0.85;;
27127;SDS011;14660;49.008;8.390;2022-12-28T13:16:55;1.48;;;0.70;;
27127;SDS011;14660;49.008;8.390;2022-12-28T13:19:27;2.45;;;0.63;;
27127;SDS011;14660;49.008;8.390;2022-12-28T13:21:55;1.05;;;0.95;;
27127;SDS011;14660;49.008;8.390;2022-12-28T13:24:24;2.47;;;0.75;;
27127;SDS011;14660;49.008;8.390;2022-12-28T13:26:56;1.10;;;0.45;;
27127;SDS011;14660;49.008;8.390;2022-12-28T13:29:26;0.47;;;0.30;;
27127;SDS011;14660;49.008;8.390;2022-12-28T13:31:58;1.73;;;0.70;;
27127;SDS011;14660;49.008;8.390;2022-12-28T13:34:26;0.85;;;0.70;;
27127;SDS011;14660;49.008;8.390;2022-12-28T13:36:55;1.17;;;0.73;;
27127;SDS011;14660;49.008;8.390;2022-12-28T13:39:29;1.83;;;0.43;;
27127;SDS011;14660;49.008;8.390;2022-12-28T13:45:01;0.90;;;0.47;;
27127;SDS011;14660;49.008;8.390;2022-12-28T13:53:25;1.73;;;0.60;;
27127;SDS011;14660;49.008;8.390;2022-12-28T13:55:59;1.17;;;0.55;;
27127;SDS011;14660;49.008;8.390;2022-12-28T14:01:16;2.10;;;0.90;;
27127;SDS011;14660;49.008;8.390;2022-12-28T14:03:46;0.80;;;0.32;;
27127;SDS011;14660;49.008;8.390;2022-12-28T14:06:14;0.82;;;0.50;;
27127;SDS011;14660;49.008;8.390;2022-12-28T14:08:43;0.93;;;0.65;;
27127;SDS011;14660;49.008;8.390;2022-12-28T14:11:10;1.63;;;0.70;;
27127;SDS011;14660;49.008;8.390;2022-12-28T14:13:38;1.48;;;0.65;;
27127;SDS011;14660;49.008;8.390;2022-12-28T14:16:05;1.13;;;0.80;;
27127;SDS011;14660;49.008;8.390;2022-12-28T14:18:33;1.52;;;0.73;;
27127;SDS011;14660;49.008;8.390;2022-12-28T14:21:00;3.53;;;0.85;;
27127;SDS011;14660;49.008;8.390;2022-12-28T14:23:30;0.40;;;0.40;;
27127;SDS011;14660;49.008;8.390;2022-12-28T14:26:03;1.13;;;0.82;;
27127;SDS011;14660;49.008;8.390;2022-12-28T14:31:22;0.95;;;0.50;;
27127;SDS011;14660;49.008;8.390;2022-12-28T14:36:58;0.82;;;0.40;;
27127;SDS011;14660;49.008;8.390;2022-12-28T14:42:46;1.40;;;0.47;;
27127;SDS011;14660;49.008;8.390;2022-12-28T14:45:21;2.28;;;0.60;;
27127;SDS011;14660;49.008;8.390;2022-12-28T14:47:59;2.35;;;0.68;;
27127;SDS011;14660;49.008;8.390;2022-12-28T14:50:56;0.93;;;0.50;;
27127;SDS011;14660;49.008;8.390;2022-12-28T14:53:42;1.77;;;0.60;;
27127;SDS011;14660;49.008;8.390;2022-12-28T14:58:58;0.73;;;0.45;;
27127;SDS011;14660;49.008;8.390;2022-12-28T15:01:38;1.02;;;0.45;;
27127;SDS011;14660;49.008;8.390;2022-12-28T15:04:09;1.27;;;0.63;;
27127;SDS011;14660;49.008;8.390;2022-12-28T15:06:55;1.25;;;0.80;;
27127;SDS011;14660;49.008;8.390;2022-12-28T15:09:23;3.03;;;0.47;;
27127;SDS011;14660;49.008;8.390;2022-12-28T15:12:05;1.00;;;0.60;;
27127;SDS011;14660;49.008;8.390;2022-12-28T15:14:42;1.77;;;0.40;;
27127;SDS011;14660;49.008;8.390;2022-12-28T15:17:09;0.90;;;0.50;;
27127;SDS011;14660;49.008;8.390;2022-12-28T15:19:36;1.15;;;0.57;;
27127;SDS011;14660;49.008;8.390;2022-12-28T15:22:04;1.30;;;0.55;;
27127;SDS011;14660;49.008;8.390;2022-12-28T15:24:31;1.02;;;0.50;;
27127;SDS011;14660;49.008;8.390;2022-12-28T15:26:58;3.25;;;0.70;;
27127;SDS011;14660;49.008;8.390;2022-12-28T15:29:25;1.77;;;0.60;;
27127;SDS011;14660;49.008;8.390;2022-12-28T15:31:52;1.65;;;0.60;;
27127;SDS011;14660;49.008;8.390;2022-12-28T15:34:18;1.90;;;0.60;;
27127;SDS011;14660;49.008;8.390;2022-12-28T15:36:46;3.40;;;0.70;;
27127;SDS011;14660;49.008;8.390;2022-12-28T15:39:13;1.38;;;0.52;;
27127;SDS011;14660;49.008;8.390;2022-12-28T15:41:41;1.15;;;0.55;;
27127;SDS011;14660;49.008;8.390;2022-12-28T15:44:18;1.75;;;0.68;;
27127;SDS011;14660;49.008;8.390;2022-12-28T15:46:46;0.75;;;0.50;;
27127;SDS011;14660;49.008;8.390;2022-12-28T15:49:15;0.63;;;0.52;;
27127;SDS011;14660;49.008;8.390;2022-12-28T15:51:42;1.52;;;0.65;;
27127;SDS011;14660;49.008;8.390;2022-12-28T15:54:11;0.90;;;0.60;;
27127;SDS011;14660;49.008;8.390;2022-12-28T15:56:39;2.30;;;0.60;;
27127;SDS011;14660;49.008;8.390;2022-12-28T15:59:08;1.60;;;0.60;;
27127;SDS011;14660;49.008;8.390;2022-12-28T16:04:07;1.38;;;0.50;;
27127;SDS011;14660;49.008;8.390;2022-12-28T16:06:35;2.05;;;0.60;;
27127;SDS011;14660;49.008;8.390;2022-12-28T16:09:02;2.15;;;0.60;;
27127;SDS011;14660;49.008;8.390;2022-12-28T16:11:29;3.25;;;0.85;;
27127;SDS011;14660;49.008;8.390;2022-12-28T16:13:57;1.65;;;0.93;;
27127;SDS011;14660;49.008;8.390;2022-12-28T16:16:30;2.65;;;0.70;;
27127;SDS011;14660;49.008;8.390;2022-12-28T16:19:00;1.77;;;0.80;;
27127;SDS011;14660;49.008;8.390;2022-12-28T16:21:27;1.70;;;1.35;;
27127;SDS011;14660;49.008;8.390;2022-12-28T16:23:55;1.55;;;0.70;;
27127;SDS011;14660;49.008;8.390;2022-12-28T16:26:23;2.22;;;0.85;;
27127;SDS011;14660;49.008;8.390;2022-12-28T16:28:50;1.73;;;0.90;;
27127;SDS011;14660;49.008;8.390;2022-12-28T16:36:46;3.08;;;1.17;;
27127;SDS011;14660;49.008;8.390;2022-12-28T16:39:14;1.90;;;0.85;;
27127;SDS011;14660;49.008;8.390;2022-12-28T16:41:42;1.02;;;0.63;;
27127;SDS011;14660;49.008;8.390;2022-12-28T16:44:14;1.17;;;0.70;;
27127;SDS011;14660;49.008;8.390;2022-12-28T16:46:43;1.88;;;0.75;;
27127;SDS011;14660;49.008;8.390;2022-12-28T16:49:10;2.80;;;0.70;;
27127;SDS011;14660;49.008;8.390;2022-12-28T16:51:38;2.63;;;1.20;;
27127;SDS011;14660;49.008;8.390;2022-12-28T16:54:13;2.65;;;0.70;;
27127;SDS011;14660;49.008;8.390;2022-12-28T16:56:42;1.20;;;0.80;;
27127;SDS011;14660;49.008;8.390;2022-12-28T16:59:12;1.58;;;0.75;;
27127;SDS011;14660;49.008;8.390;2022-12-28T17:01:47;3.28;;;0.95;;
27127;SDS011;14660;49.008;8.390;2022-12-28T17:04:13;2.00;;;0.90;;
27127;SDS011;14660;49.008;8.390;2022-12-28T17:06:40;2.15;;;1.10;;
27127;SDS011;14660;49.008;8.390;2022-12-28T17:09:08;1.88;;;0.93;;
27127;SDS011;14660;49.008;8.390;2022-12-28T17:11:35;1.98;;;1.00;;
27127;SDS011;14660;49.008;8.390;2022-12-28T17:16:46;3.35;;;1.08;;
27127;SDS011;14660;49.008;8.390;2022-12-28T17:19:13;4.05;;;1.73;;
27127;SDS011;14660;49.008;8.390;2022-12-28T17:21:40;1.15;;;0.95;;
27127;SDS011;14660;49.008;8.390;2022-12-28T17:24:07;1.67;;;1.15;;
27127;SDS011;14660;49.008;8.390;2022-12-28T17:26:35;1.77;;;0.80;;
27127;SDS011;14660;49.008;8.390;2022-12-28T17:29:01;1.10;;;0.80;;
27127;SDS011;14660;49.008;8.390;2022-12-28T17:31:29;1.63;;;0.80;;
27127;SDS011;14660;49.008;8.390;2022-12-28T17:33:56;2.25;;;0.85;;
27127;SDS011;14660;49.008;8.390;2022-12-28T17:36:23;1.20;;;0.68;;
27127;SDS011;14660;49.008;8.390;2022-12-28T17:38:50;1.30;;;0.85;;
27127;SDS011;14660;49.008;8.390;2022-12-28T17:41:19;1.75;;;1.00;;
27127;SDS011;14660;49.008;8.390;2022-12-28T17:43:48;2.75;;;0.90;;
27127;SDS011;14660;49.008;8.390;2022-12-28T17:46:19;2.37;;;1.07;;
27127;SDS011;14660;49.008;8.390;2022-12-28T17:48:46;1.77;;;1.20;;
27127;SDS011;14660;49.008;8.390;2022-12-28T17:51:14;2.53;;;1.08;;
27127;SDS011;14660;49.008;8.390;2022-12-28T17:53:41;1.60;;;1.02;;
27127;SDS011;14660;49.008;8.390;2022-12-28T17:56:09;1.75;;;0.88;;
27127;SDS011;14660;49.008;8.390;2022-12-28T17:58:38;1.63;;;0.90;;
27127;SDS011;14660;49.008;8.390;2022-12-28T18:01:05;2.05;;;1.05;;
27127;SDS011;14660;49.008;8.390;2022-12-28T18:03:32;1.50;;;0.98;;
27127;SDS011;14660;49.008;8.390;2022-12-28T18:05:58;1.88;;;0.95;;
27127;SDS011;14660;49.008;8.390;2022-12-28T18:08:26;2.70;;;0.98;;
27127;SDS011;14660;49.008;8.390;2022-12-28T18:10:53;1.02;;;0.63;;
27127;SDS011;14660;49.008;8.390;2022-12-28T18:13:20;3.00;;;0.93;;
27127;SDS011;14660;49.008;8.390;2022-12-28T18:15:47;2.58;;;1.25;;
27127;SDS011;14660;49.008;8.390;2022-12-28T18:18:14;2.03;;;1.08;;
27127;SDS011;14660;49.008;8.390;2022-12-28T18:20:42;3.08;;;0.90;;
27127;SDS011;14660;49.008;8.390;2022-12-28T18:23:09;1.60;;;1.05;;
27127;SDS011;14660;49.008;8.390;2022-12-28T18:25:35;3.70;;;1.20;;
27127;SDS011;14660;49.008;8.390;2022-12-28T18:28:03;2.50;;;1.33;;
27127;SDS011;14660;49.008;8.390;2022-12-28T18:30:30;2.70;;;1.10;;
27127;SDS011;14660;49.008;8.390;2022-12-28T18:32:57;1.35;;;0.88;;
27127;SDS011;14660;49.008;8.390;2022-12-28T18:35:23;1.73;;;0.95;;
27127;SDS011;14660;49.008;8.390;2022-12-28T18:37:52;1.33;;;0.93;;
27127;SDS011;14660;49.008;8.390;2022-12-28T18:40:19;5.35;;;1.42;;
27127;SDS011;14660;49.008;8.390;2022-12-28T18:42:46;2.05;;;1.17;;
27127;SDS011;14660;49.008;8.390;2022-12-28T18:45:12;2.28;;;1.30;;
27127;SDS011;14660;49.008;8.390;2022-12-28T18:47:40;1.00;;;0.70;;